Terminal Aerodrome Forecast
Issued by NWS

Home | Current Version | Previous Version | Text Only | Print | Product List | Glossary On
Versions: 1 2 3 4 5 6 7 8 9 10 11 12 13 14 15 16
000
FTUS43 KSGF 240500
TAFJLN
TAF
KJLN 240520Z 2406/2506 14012KT P6SM BKN040 OVC200 WS020/15045KT
     FM240900 14010G18KT P6SM VCSH BKN035 OVC080 WS020/17045KT
      TEMPO 2410/2414 4SM -TSRA OVC030CB
     FM241600 18016G26KT P6SM SCT035 BKN070
      TEMPO 2502/2506 6SM -TSRA OVC035CB=

USA.gov is the U.S. government's official web portal to all federal, state and local government web resources and services.